sensor_id;sensor_type;location;lat;lon;timestamp;P1;durP1;ratioP1;P2;durP2;ratioP2
4601;SDS011;2313;48.552;9.370;2023-03-23T00:01:27;1.43;;;1.00;;
4601;SDS011;2313;48.552;9.370;2023-03-23T00:03:57;2.47;;;1.30;;
4601;SDS011;2313;48.552;9.370;2023-03-23T00:06:24;2.17;;;1.10;;
4601;SDS011;2313;48.552;9.370;2023-03-23T00:08:52;2.23;;;1.30;;
4601;SDS011;2313;48.552;9.370;2023-03-23T00:11:25;3.00;;;1.20;;
4601;SDS011;2313;48.552;9.370;2023-03-23T00:13:54;1.87;;;1.10;;
4601;SDS011;2313;48.552;9.370;2023-03-23T00:16:23;1.33;;;1.13;;
4601;SDS011;2313;48.552;9.370;2023-03-23T00:19:00;1.93;;;0.97;;
4601;SDS011;2313;48.552;9.370;2023-03-23T00:21:29;2.37;;;1.50;;
4601;SDS011;2313;48.552;9.370;2023-03-23T00:24:03;1.40;;;1.27;;
4601;SDS011;2313;48.552;9.370;2023-03-23T00:26:55;2.77;;;1.20;;
4601;SDS011;2313;48.552;9.370;2023-03-23T00:29:23;3.10;;;1.13;;
4601;SDS011;2313;48.552;9.370;2023-03-23T00:31:49;1.07;;;0.97;;
4601;SDS011;2313;48.552;9.370;2023-03-23T00:34:16;4.57;;;1.03;;
4601;SDS011;2313;48.552;9.370;2023-03-23T00:36:45;2.27;;;1.00;;
4601;SDS011;2313;48.552;9.370;2023-03-23T00:39:16;1.83;;;1.13;;
4601;SDS011;2313;48.552;9.370;2023-03-23T00:41:43;1.23;;;1.13;;
4601;SDS011;2313;48.552;9.370;2023-03-23T00:44:09;2.57;;;1.30;;
4601;SDS011;2313;48.552;9.370;2023-03-23T00:46:41;1.63;;;1.03;;
4601;SDS011;2313;48.552;9.370;2023-03-23T00:49:13;2.00;;;1.10;;
4601;SDS011;2313;48.552;9.370;2023-03-23T00:51:42;1.30;;;0.87;;
4601;SDS011;2313;48.552;9.370;2023-03-23T00:54:08;2.07;;;1.30;;
4601;SDS011;2313;48.552;9.370;2023-03-23T00:56:34;3.10;;;1.20;;
4601;SDS011;2313;48.552;9.370;2023-03-23T00:59:01;5.10;;;1.40;;
4601;SDS011;2313;48.552;9.370;2023-03-23T01:01:26;1.00;;;0.90;;
4601;SDS011;2313;48.552;9.370;2023-03-23T01:03:52;1.10;;;0.93;;
4601;SDS011;2313;48.552;9.370;2023-03-23T01:06:25;2.63;;;1.27;;
4601;SDS011;2313;48.552;9.370;2023-03-23T01:08:52;1.20;;;1.10;;
4601;SDS011;2313;48.552;9.370;2023-03-23T01:11:19;1.50;;;1.10;;
4601;SDS011;2313;48.552;9.370;2023-03-23T01:13:45;7.47;;;1.40;;
4601;SDS011;2313;48.552;9.370;2023-03-23T01:16:11;1.13;;;1.00;;
4601;SDS011;2313;48.552;9.370;2023-03-23T01:18:38;1.30;;;1.10;;
4601;SDS011;2313;48.552;9.370;2023-03-23T01:21:05;2.13;;;0.73;;
4601;SDS011;2313;48.552;9.370;2023-03-23T01:23:36;2.57;;;1.23;;
4601;SDS011;2313;48.552;9.370;2023-03-23T01:26:12;2.30;;;1.20;;
4601;SDS011;2313;48.552;9.370;2023-03-23T01:28:39;1.50;;;1.03;;
4601;SDS011;2313;48.552;9.370;2023-03-23T01:31:07;1.47;;;1.00;;
4601;SDS011;2313;48.552;9.370;2023-03-23T01:33:37;3.07;;;1.30;;
4601;SDS011;2313;48.552;9.370;2023-03-23T01:36:04;3.33;;;1.30;;
4601;SDS011;2313;48.552;9.370;2023-03-23T01:38:32;4.20;;;1.50;;
4601;SDS011;2313;48.552;9.370;2023-03-23T01:40:58;2.00;;;1.10;;
4601;SDS011;2313;48.552;9.370;2023-03-23T01:43:24;2.03;;;1.20;;
4601;SDS011;2313;48.552;9.370;2023-03-23T01:45:50;2.80;;;1.13;;
4601;SDS011;2313;48.552;9.370;2023-03-23T01:48:26;2.13;;;1.20;;
4601;SDS011;2313;48.552;9.370;2023-03-23T01:50:59;1.83;;;1.20;;
4601;SDS011;2313;48.552;9.370;2023-03-23T01:53:39;1.10;;;1.00;;
4601;SDS011;2313;48.552;9.370;2023-03-23T01:56:11;1.00;;;0.90;;
4601;SDS011;2313;48.552;9.370;2023-03-23T01:58:39;3.37;;;1.00;;
4601;SDS011;2313;48.552;9.370;2023-03-23T02:01:07;1.10;;;1.00;;
4601;SDS011;2313;48.552;9.370;2023-03-23T02:03:37;3.33;;;1.30;;
4601;SDS011;2313;48.552;9.370;2023-03-23T02:06:04;1.50;;;1.23;;
4601;SDS011;2313;48.552;9.370;2023-03-23T02:08:31;1.43;;;0.80;;
4601;SDS011;2313;48.552;9.370;2023-03-23T02:10:58;3.47;;;1.20;;
4601;SDS011;2313;48.552;9.370;2023-03-23T02:13:23;1.30;;;1.20;;
4601;SDS011;2313;48.552;9.370;2023-03-23T02:18:51;2.70;;;1.20;;
4601;SDS011;2313;48.552;9.370;2023-03-23T02:24:40;1.70;;;1.30;;
4601;SDS011;2313;48.552;9.370;2023-03-23T02:30:11;2.03;;;1.30;;
4601;SDS011;2313;48.552;9.370;2023-03-23T02:35:40;1.20;;;1.10;;
4601;SDS011;2313;48.552;9.370;2023-03-23T02:38:21;1.10;;;1.00;;
4601;SDS011;2313;48.552;9.370;2023-03-23T02:40:58;6.80;;;1.40;;
4601;SDS011;2313;48.552;9.370;2023-03-23T02:43:27;1.50;;;1.00;;
4601;SDS011;2313;48.552;9.370;2023-03-23T02:45:56;3.57;;;1.27;;
4601;SDS011;2313;48.552;9.370;2023-03-23T02:48:24;1.70;;;1.10;;
4601;SDS011;2313;48.552;9.370;2023-03-23T02:50:54;6.50;;;1.20;;
4601;SDS011;2313;48.552;9.370;2023-03-23T02:53:22;1.73;;;1.27;;
4601;SDS011;2313;48.552;9.370;2023-03-23T02:55:49;1.10;;;0.83;;
4601;SDS011;2313;48.552;9.370;2023-03-23T02:58:18;3.07;;;1.37;;
4601;SDS011;2313;48.552;9.370;2023-03-23T03:00:44;2.47;;;1.40;;
4601;SDS011;2313;48.552;9.370;2023-03-23T03:03:14;1.00;;;0.73;;
4601;SDS011;2313;48.552;9.370;2023-03-23T03:05:47;2.30;;;1.30;;
4601;SDS011;2313;48.552;9.370;2023-03-23T03:11:13;2.00;;;1.33;;
4601;SDS011;2313;48.552;9.370;2023-03-23T03:16:38;2.07;;;0.90;;
4601;SDS011;2313;48.552;9.370;2023-03-23T03:19:20;1.87;;;1.37;;
4601;SDS011;2313;48.552;9.370;2023-03-23T03:21:50;1.10;;;0.83;;
4601;SDS011;2313;48.552;9.370;2023-03-23T03:24:18;1.87;;;1.33;;
4601;SDS011;2313;48.552;9.370;2023-03-23T03:26:47;3.10;;;1.10;;
4601;SDS011;2313;48.552;9.370;2023-03-23T03:29:16;1.10;;;1.00;;
4601;SDS011;2313;48.552;9.370;2023-03-23T03:31:48;2.17;;;1.40;;
4601;SDS011;2313;48.552;9.370;2023-03-23T03:34:16;1.30;;;1.20;;
4601;SDS011;2313;48.552;9.370;2023-03-23T03:36:46;2.00;;;1.17;;
4601;SDS011;2313;48.552;9.370;2023-03-23T03:39:13;1.50;;;1.40;;
4601;SDS011;2313;48.552;9.370;2023-03-23T03:41:40;1.73;;;1.20;;
4601;SDS011;2313;48.552;9.370;2023-03-23T03:44:07;1.30;;;0.90;;
4601;SDS011;2313;48.552;9.370;2023-03-23T03:46:33;1.30;;;1.03;;
4601;SDS011;2313;48.552;9.370;2023-03-23T03:49:00;1.60;;;1.30;;
4601;SDS011;2313;48.552;9.370;2023-03-23T03:51:27;1.73;;;1.03;;
4601;SDS011;2313;48.552;9.370;2023-03-23T03:53:54;2.17;;;1.40;;
4601;SDS011;2313;48.552;9.370;2023-03-23T03:56:21;1.83;;;1.40;;
4601;SDS011;2313;48.552;9.370;2023-03-23T03:58:47;3.90;;;1.27;;
4601;SDS011;2313;48.552;9.370;2023-03-23T04:01:13;1.23;;;1.13;;
4601;SDS011;2313;48.552;9.370;2023-03-23T04:03:41;2.60;;;1.20;;
4601;SDS011;2313;48.552;9.370;2023-03-23T04:06:07;1.77;;;1.53;;
4601;SDS011;2313;48.552;9.370;2023-03-23T04:08:37;4.90;;;1.10;;
4601;SDS011;2313;48.552;9.370;2023-03-23T04:11:06;1.90;;;1.10;;
4601;SDS011;2313;48.552;9.370;2023-03-23T04:13:36;1.93;;;1.37;;
4601;SDS011;2313;48.552;9.370;2023-03-23T04:16:02;4.20;;;1.30;;
4601;SDS011;2313;48.552;9.370;2023-03-23T04:18:28;1.53;;;1.00;;
4601;SDS011;2313;48.552;9.370;2023-03-23T04:20:54;2.77;;;1.00;;
4601;SDS011;2313;48.552;9.370;2023-03-23T04:23:23;1.93;;;1.00;;
4601;SDS011;2313;48.552;9.370;2023-03-23T04:25:50;2.20;;;1.20;;
4601;SDS011;2313;48.552;9.370;2023-03-23T04:28:17;1.30;;;1.13;;
4601;SDS011;2313;48.552;9.370;2023-03-23T04:30:43;1.40;;;0.90;;
4601;SDS011;2313;48.552;9.370;2023-03-23T04:33:10;2.27;;;1.17;;
4601;SDS011;2313;48.552;9.370;2023-03-23T04:35:43;1.97;;;1.13;;
4601;SDS011;2313;48.552;9.370;2023-03-23T04:38:10;2.97;;;0.93;;
4601;SDS011;2313;48.552;9.370;2023-03-23T04:40:38;3.00;;;1.33;;
4601;SDS011;2313;48.552;9.370;2023-03-23T04:43:05;2.60;;;1.30;;
4601;SDS011;2313;48.552;9.370;2023-03-23T04:45:32;1.53;;;1.30;;
4601;SDS011;2313;48.552;9.370;2023-03-23T04:47:59;3.70;;;1.30;;
4601;SDS011;2313;48.552;9.370;2023-03-23T04:50:27;2.10;;;1.37;;
4601;SDS011;2313;48.552;9.370;2023-03-23T04:52:57;4.50;;;1.80;;
4601;SDS011;2313;48.552;9.370;2023-03-23T04:55:29;2.33;;;1.27;;
4601;SDS011;2313;48.552;9.370;2023-03-23T04:57:56;1.23;;;1.13;;
4601;SDS011;2313;48.552;9.370;2023-03-23T05:00:26;3.43;;;1.33;;
4601;SDS011;2313;48.552;9.370;2023-03-23T05:02:52;5.63;;;1.30;;
4601;SDS011;2313;48.552;9.370;2023-03-23T05:05:20;5.80;;;1.40;;
4601;SDS011;2313;48.552;9.370;2023-03-23T05:07:48;2.87;;;1.47;;
4601;SDS011;2313;48.552;9.370;2023-03-23T05:10:14;1.63;;;1.13;;
4601;SDS011;2313;48.552;9.370;2023-03-23T05:12:41;2.50;;;1.80;;
4601;SDS011;2313;48.552;9.370;2023-03-23T05:15:07;1.40;;;1.30;;
4601;SDS011;2313;48.552;9.370;2023-03-23T05:17:34;2.23;;;2.03;;
4601;SDS011;2313;48.552;9.370;2023-03-23T05:20:00;2.70;;;1.40;;
4601;SDS011;2313;48.552;9.370;2023-03-23T05:22:30;3.40;;;1.50;;
4601;SDS011;2313;48.552;9.370;2023-03-23T05:24:58;2.63;;;1.57;;
4601;SDS011;2313;48.552;9.370;2023-03-23T05:27:24;3.83;;;1.73;;
4601;SDS011;2313;48.552;9.370;2023-03-23T05:29:53;1.63;;;1.20;;
4601;SDS011;2313;48.552;9.370;2023-03-23T05:32:18;5.17;;;1.90;;
4601;SDS011;2313;48.552;9.370;2023-03-23T05:34:45;3.17;;;1.60;;
4601;SDS011;2313;48.552;9.370;2023-03-23T05:37:11;1.50;;;1.17;;
4601;SDS011;2313;48.552;9.370;2023-03-23T05:39:37;1.60;;;1.30;;
4601;SDS011;2313;48.552;9.370;2023-03-23T05:42:03;2.00;;;1.13;;
4601;SDS011;2313;48.552;9.370;2023-03-23T05:44:29;3.43;;;1.43;;
4601;SDS011;2313;48.552;9.370;2023-03-23T05:46:55;1.63;;;1.10;;
4601;SDS011;2313;48.552;9.370;2023-03-23T05:49:20;9.07;;;1.40;;
4601;SDS011;2313;48.552;9.370;2023-03-23T05:51:46;1.17;;;1.07;;
4601;SDS011;2313;48.552;9.370;2023-03-23T05:54:12;4.63;;;1.20;;
4601;SDS011;2313;48.552;9.370;2023-03-23T05:56:39;2.60;;;1.20;;
4601;SDS011;2313;48.552;9.370;2023-03-23T05:59:05;1.70;;;1.47;;
4601;SDS011;2313;48.552;9.370;2023-03-23T06:01:30;2.70;;;1.40;;
4601;SDS011;2313;48.552;9.370;2023-03-23T06:03:56;6.17;;;1.67;;
4601;SDS011;2313;48.552;9.370;2023-03-23T06:06:24;2.47;;;1.50;;
4601;SDS011;2313;48.552;9.370;2023-03-23T06:08:50;1.40;;;1.30;;
4601;SDS011;2313;48.552;9.370;2023-03-23T06:11:16;4.10;;;1.80;;
4601;SDS011;2313;48.552;9.370;2023-03-23T06:13:42;3.53;;;1.47;;
4601;SDS011;2313;48.552;9.370;2023-03-23T06:16:08;8.13;;;2.47;;
4601;SDS011;2313;48.552;9.370;2023-03-23T06:18:34;10.13;;;2.33;;
4601;SDS011;2313;48.552;9.370;2023-03-23T06:21:02;5.63;;;2.00;;
4601;SDS011;2313;48.552;9.370;2023-03-23T06:23:28;1.73;;;1.20;;
4601;SDS011;2313;48.552;9.370;2023-03-23T06:25:58;6.53;;;1.40;;
4601;SDS011;2313;48.552;9.370;2023-03-23T06:28:26;1.93;;;1.20;;
4601;SDS011;2313;48.552;9.370;2023-03-23T06:30:52;3.50;;;1.90;;
4601;SDS011;2313;48.552;9.370;2023-03-23T06:33:18;3.20;;;1.50;;
4601;SDS011;2313;48.552;9.370;2023-03-23T06:35:44;12.37;;;2.20;;
4601;SDS011;2313;48.552;9.370;2023-03-23T06:38:09;22.57;;;2.63;;
4601;SDS011;2313;48.552;9.370;2023-03-23T06:40:35;12.03;;;1.87;;
4601;SDS011;2313;48.552;9.370;2023-03-23T06:43:02;19.43;;;3.00;;
4601;SDS011;2313;48.552;9.370;2023-03-23T06:45:28;9.70;;;2.50;;
4601;SDS011;2313;48.552;9.370;2023-03-23T06:47:55;7.00;;;3.03;;
4601;SDS011;2313;48.552;9.370;2023-03-23T06:50:21;2.80;;;1.60;;
4601;SDS011;2313;48.552;9.370;2023-03-23T06:52:47;6.70;;;2.17;;
4601;SDS011;2313;48.552;9.370;2023-03-23T06:55:14;9.50;;;1.60;;
4601;SDS011;2313;48.552;9.370;2023-03-23T06:57:40;7.80;;;1.63;;
4601;SDS011;2313;48.552;9.370;2023-03-23T07:00:07;3.00;;;1.70;;
4601;SDS011;2313;48.552;9.370;2023-03-23T07:02:38;2.03;;;1.40;;
4601;SDS011;2313;48.552;9.370;2023-03-23T07:05:08;1.80;;;1.40;;
4601;SDS011;2313;48.552;9.370;2023-03-23T07:07:34;4.37;;;1.60;;
4601;SDS011;2313;48.552;9.370;2023-03-23T07:10:01;3.80;;;1.60;;
4601;SDS011;2313;48.552;9.370;2023-03-23T07:12:27;1.53;;;1.43;;
4601;SDS011;2313;48.552;9.370;2023-03-23T07:14:53;2.07;;;1.47;;
4601;SDS011;2313;48.552;9.370;2023-03-23T07:17:20;4.43;;;1.57;;
4601;SDS011;2313;48.552;9.370;2023-03-23T07:19:46;3.20;;;1.57;;
4601;SDS011;2313;48.552;9.370;2023-03-23T07:22:11;5.07;;;1.80;;
4601;SDS011;2313;48.552;9.370;2023-03-23T07:24:37;3.50;;;1.93;;
4601;SDS011;2313;48.552;9.370;2023-03-23T07:27:02;1.73;;;1.53;;
4601;SDS011;2313;48.552;9.370;2023-03-23T07:29:28;3.30;;;1.67;;
4601;SDS011;2313;48.552;9.370;2023-03-23T07:31:54;4.30;;;1.90;;
4601;SDS011;2313;48.552;9.370;2023-03-23T07:34:20;5.10;;;2.00;;
4601;SDS011;2313;48.552;9.370;2023-03-23T07:36:46;4.60;;;1.93;;
4601;SDS011;2313;48.552;9.370;2023-03-23T07:39:12;3.27;;;2.10;;
4601;SDS011;2313;48.552;9.370;2023-03-23T07:41:38;3.17;;;2.00;;
4601;SDS011;2313;48.552;9.370;2023-03-23T07:44:04;3.40;;;1.60;;
4601;SDS011;2313;48.552;9.370;2023-03-23T07:46:30;2.43;;;1.77;;
4601;SDS011;2313;48.552;9.370;2023-03-23T07:48:56;2.30;;;1.67;;
4601;SDS011;2313;48.552;9.370;2023-03-23T07:51:22;3.03;;;1.20;;
4601;SDS011;2313;48.552;9.370;2023-03-23T07:53:49;2.10;;;1.30;;
4601;SDS011;2313;48.552;9.370;2023-03-23T07:56:16;2.63;;;1.60;;
4601;SDS011;2313;48.552;9.370;2023-03-23T07:58:45;1.93;;;1.40;;
4601;SDS011;2313;48.552;9.370;2023-03-23T08:01:11;1.27;;;1.13;;
4601;SDS011;2313;48.552;9.370;2023-03-23T08:03:37;1.70;;;1.30;;
4601;SDS011;2313;48.552;9.370;2023-03-23T08:06:03;2.10;;;1.60;;
4601;SDS011;2313;48.552;9.370;2023-03-23T08:08:30;1.97;;;1.60;;
4601;SDS011;2313;48.552;9.370;2023-03-23T08:10:56;1.50;;;1.30;;
4601;SDS011;2313;48.552;9.370;2023-03-23T08:13:22;5.03;;;1.80;;
4601;SDS011;2313;48.552;9.370;2023-03-23T08:15:47;3.30;;;1.47;;
4601;SDS011;2313;48.552;9.370;2023-03-23T08:18:13;2.03;;;1.67;;
4601;SDS011;2313;48.552;9.370;2023-03-23T08:20:39;1.60;;;1.27;;
4601;SDS011;2313;48.552;9.370;2023-03-23T08:23:05;4.83;;;1.70;;
4601;SDS011;2313;48.552;9.370;2023-03-23T08:25:31;3.30;;;1.10;;
4601;SDS011;2313;48.552;9.370;2023-03-23T08:27:57;2.70;;;1.63;;
4601;SDS011;2313;48.552;9.370;2023-03-23T08:30:26;1.33;;;1.23;;
4601;SDS011;2313;48.552;9.370;2023-03-23T08:32:54;2.17;;;1.90;;
4601;SDS011;2313;48.552;9.370;2023-03-23T08:35:19;1.80;;;1.37;;
4601;SDS011;2313;48.552;9.370;2023-03-23T08:37:45;1.83;;;1.57;;
4601;SDS011;2313;48.552;9.370;2023-03-23T08:40:16;2.63;;;1.63;;
4601;SDS011;2313;48.552;9.370;2023-03-23T08:42:44;1.93;;;1.60;;
4601;SDS011;2313;48.552;9.370;2023-03-23T08:45:11;2.73;;;1.50;;
4601;SDS011;2313;48.552;9.370;2023-03-23T08:47:40;1.30;;;1.20;;
4601;SDS011;2313;48.552;9.370;2023-03-23T08:50:07;2.17;;;1.60;;
4601;SDS011;2313;48.552;9.370;2023-03-23T08:52:35;1.80;;;1.53;;
4601;SDS011;2313;48.552;9.370;2023-03-23T08:55:02;4.83;;;1.97;;
4601;SDS011;2313;48.552;9.370;2023-03-23T08:57:28;2.40;;;1.17;;
4601;SDS011;2313;48.552;9.370;2023-03-23T08:59:54;2.13;;;1.37;;
4601;SDS011;2313;48.552;9.370;2023-03-23T09:02:24;3.83;;;1.63;;
4601;SDS011;2313;48.552;9.370;2023-03-23T09:04:51;6.80;;;1.63;;
4601;SDS011;2313;48.552;9.370;2023-03-23T09:07:18;1.63;;;1.30;;
4601;SDS011;2313;48.552;9.370;2023-03-23T09:09:43;1.40;;;0.97;;
4601;SDS011;2313;48.552;9.370;2023-03-23T09:12:10;4.50;;;1.30;;
4601;SDS011;2313;48.552;9.370;2023-03-23T09:14:37;4.27;;;1.40;;
4601;SDS011;2313;48.552;9.370;2023-03-23T09:17:03;1.67;;;1.40;;
4601;SDS011;2313;48.552;9.370;2023-03-23T09:19:30;2.60;;;1.30;;
4601;SDS011;2313;48.552;9.370;2023-03-23T09:21:58;4.03;;;1.50;;
4601;SDS011;2313;48.552;9.370;2023-03-23T09:24:23;2.80;;;1.43;;
4601;SDS011;2313;48.552;9.370;2023-03-23T09:26:50;2.80;;;1.50;;
4601;SDS011;2313;48.552;9.370;2023-03-23T09:29:15;2.80;;;1.27;;
4601;SDS011;2313;48.552;9.370;2023-03-23T09:31:41;1.53;;;1.10;;
4601;SDS011;2313;48.552;9.370;2023-03-23T09:34:08;3.00;;;1.30;;
4601;SDS011;2313;48.552;9.370;2023-03-23T09:36:37;1.63;;;1.03;;
4601;SDS011;2313;48.552;9.370;2023-03-23T09:39:04;2.03;;;1.10;;
4601;SDS011;2313;48.552;9.370;2023-03-23T09:41:44;2.50;;;1.17;;
4601;SDS011;2313;48.552;9.370;2023-03-23T09:46:49;1.50;;;1.10;;
4601;SDS011;2313;48.552;9.370;2023-03-23T09:49:23;1.77;;;1.27;;
4601;SDS011;2313;48.552;9.370;2023-03-23T09:51:54;1.63;;;1.43;;
4601;SDS011;2313;48.552;9.370;2023-03-23T09:54:38;1.90;;;1.40;;
4601;SDS011;2313;48.552;9.370;2023-03-23T09:57:11;1.83;;;1.00;;
4601;SDS011;2313;48.552;9.370;2023-03-23T10:02:15;3.50;;;1.43;;
4601;SDS011;2313;48.552;9.370;2023-03-23T10:04:45;2.20;;;1.23;;
4601;SDS011;2313;48.552;9.370;2023-03-23T10:09:55;1.53;;;0.97;;
4601;SDS011;2313;48.552;9.370;2023-03-23T10:15:16;1.70;;;1.07;;
4601;SDS011;2313;48.552;9.370;2023-03-23T10:17:50;2.23;;;0.97;;
4601;SDS011;2313;48.552;9.370;2023-03-23T10:26:19;2.40;;;1.17;;
4601;SDS011;2313;48.552;9.370;2023-03-23T10:29:11;1.53;;;1.40;;
4601;SDS011;2313;48.552;9.370;2023-03-23T10:31:52;1.63;;;1.07;;
4601;SDS011;2313;48.552;9.370;2023-03-23T10:34:31;1.97;;;1.20;;
4601;SDS011;2313;48.552;9.370;2023-03-23T10:37:20;1.63;;;1.50;;
4601;SDS011;2313;48.552;9.370;2023-03-23T10:39:57;1.67;;;1.57;;
4601;SDS011;2313;48.552;9.370;2023-03-23T10:42:28;1.40;;;1.17;;
4601;SDS011;2313;48.552;9.370;2023-03-23T10:48:08;1.40;;;1.30;;
4601;SDS011;2313;48.552;9.370;2023-03-23T10:50:39;5.17;;;1.60;;
4601;SDS011;2313;48.552;9.370;2023-03-23T10:53:13;2.60;;;1.33;;
4601;SDS011;2313;48.552;9.370;2023-03-23T10:55:48;3.13;;;1.47;;
4601;SDS011;2313;48.552;9.370;2023-03-23T10:58:24;1.63;;;1.10;;
4601;SDS011;2313;48.552;9.370;2023-03-23T11:00:54;3.03;;;1.23;;
4601;SDS011;2313;48.552;9.370;2023-03-23T11:03:25;2.63;;;1.40;;
4601;SDS011;2313;48.552;9.370;2023-03-23T11:06:06;2.70;;;1.33;;
4601;SDS011;2313;48.552;9.370;2023-03-23T11:08:35;1.87;;;1.00;;
4601;SDS011;2313;48.552;9.370;2023-03-23T11:11:21;1.20;;;0.90;;
4601;SDS011;2313;48.552;9.370;2023-03-23T11:14:01;1.73;;;1.37;;
4601;SDS011;2313;48.552;9.370;2023-03-23T11:16:42;5.50;;;1.53;;
4601;SDS011;2313;48.552;9.370;2023-03-23T11:19:21;3.27;;;1.43;;
4601;SDS011;2313;48.552;9.370;2023-03-23T11:21:53;2.10;;;1.73;;
4601;SDS011;2313;48.552;9.370;2023-03-23T11:24:21;3.37;;;1.77;;
4601;SDS011;2313;48.552;9.370;2023-03-23T11:26:48;3.43;;;1.50;;
4601;SDS011;2313;48.552;9.370;2023-03-23T11:31:50;2.40;;;1.80;;
4601;SDS011;2313;48.552;9.370;2023-03-23T11:34:24;5.77;;;2.57;;
4601;SDS011;2313;48.552;9.370;2023-03-23T11:37:14;3.63;;;1.30;;
4601;SDS011;2313;48.552;9.370;2023-03-23T11:42:22;2.03;;;1.50;;
4601;SDS011;2313;48.552;9.370;2023-03-23T11:50:52;1.60;;;1.10;;
4601;SDS011;2313;48.552;9.370;2023-03-23T11:53:29;1.57;;;1.33;;
4601;SDS011;2313;48.552;9.370;2023-03-23T11:58:48;1.33;;;1.20;;
4601;SDS011;2313;48.552;9.370;2023-03-23T12:01:26;1.80;;;1.47;;
4601;SDS011;2313;48.552;9.370;2023-03-23T12:04:25;2.50;;;1.37;;
4601;SDS011;2313;48.552;9.370;2023-03-23T12:13:12;1.83;;;1.10;;
4601;SDS011;2313;48.552;9.370;2023-03-23T12:19:01;2.20;;;1.70;;
4601;SDS011;2313;48.552;9.370;2023-03-23T12:29:44;1.47;;;1.37;;
4601;SDS011;2313;48.552;9.370;2023-03-23T12:35:04;2.50;;;1.20;;
4601;SDS011;2313;48.552;9.370;2023-03-23T12:40:34;1.40;;;1.30;;
4601;SDS011;2313;48.552;9.370;2023-03-23T12:43:31;2.60;;;1.60;;
4601;SDS011;2313;48.552;9.370;2023-03-23T12:51:57;1.73;;;1.40;;
4601;SDS011;2313;48.552;9.370;2023-03-23T12:54:32;3.27;;;1.60;;
4601;SDS011;2313;48.552;9.370;2023-03-23T12:57:31;1.30;;;1.20;;
4601;SDS011;2313;48.552;9.370;2023-03-23T13:05:39;5.03;;;1.83;;
4601;SDS011;2313;48.552;9.370;2023-03-23T13:08:14;1.90;;;1.50;;
4601;SDS011;2313;48.552;9.370;2023-03-23T13:10:47;3.57;;;1.80;;
4601;SDS011;2313;48.552;9.370;2023-03-23T13:13:16;3.40;;;1.40;;
4601;SDS011;2313;48.552;9.370;2023-03-23T13:18:45;2.60;;;1.60;;
4601;SDS011;2313;48.552;9.370;2023-03-23T13:24:00;4.80;;;1.50;;
4601;SDS011;2313;48.552;9.370;2023-03-23T13:26:31;4.60;;;1.97;;
4601;SDS011;2313;48.552;9.370;2023-03-23T13:29:43;3.07;;;1.40;;
4601;SDS011;2313;48.552;9.370;2023-03-23T13:32:16;1.80;;;1.40;;
4601;SDS011;2313;48.552;9.370;2023-03-23T13:34:43;1.93;;;1.40;;
4601;SDS011;2313;48.552;9.370;2023-03-23T13:37:22;1.73;;;1.37;;
4601;SDS011;2313;48.552;9.370;2023-03-23T13:39:54;1.70;;;1.60;;
4601;SDS011;2313;48.552;9.370;2023-03-23T13:42:47;3.30;;;1.47;;
4601;SDS011;2313;48.552;9.370;2023-03-23T13:45:22;3.27;;;1.53;;
4601;SDS011;2313;48.552;9.370;2023-03-23T13:48:05;1.80;;;1.57;;
4601;SDS011;2313;48.552;9.370;2023-03-23T13:50:48;4.33;;;1.60;;
4601;SDS011;2313;48.552;9.370;2023-03-23T13:53:26;2.30;;;1.37;;
4601;SDS011;2313;48.552;9.370;2023-03-23T13:56:07;1.63;;;1.23;;
4601;SDS011;2313;48.552;9.370;2023-03-23T13:58:52;2.20;;;1.57;;
4601;SDS011;2313;48.552;9.370;2023-03-23T14:01:36;2.57;;;1.77;;
4601;SDS011;2313;48.552;9.370;2023-03-23T14:04:14;3.03;;;1.50;;
4601;SDS011;2313;48.552;9.370;2023-03-23T14:06:42;2.67;;;2.20;;
4601;SDS011;2313;48.552;9.370;2023-03-23T14:09:31;3.43;;;1.47;;
4601;SDS011;2313;48.552;9.370;2023-03-23T14:12:05;3.93;;;1.67;;
4601;SDS011;2313;48.552;9.370;2023-03-23T14:14:44;2.53;;;1.50;;
4601;SDS011;2313;48.552;9.370;2023-03-23T14:17:14;3.33;;;1.27;;
4601;SDS011;2313;48.552;9.370;2023-03-23T14:19:54;1.80;;;1.70;;
4601;SDS011;2313;48.552;9.370;2023-03-23T14:22:33;4.27;;;1.67;;
4601;SDS011;2313;48.552;9.370;2023-03-23T14:25:02;1.80;;;1.47;;
4601;SDS011;2313;48.552;9.370;2023-03-23T14:27:36;2.30;;;1.20;;
4601;SDS011;2313;48.552;9.370;2023-03-23T14:30:09;2.80;;;1.67;;
4601;SDS011;2313;48.552;9.370;2023-03-23T14:32:39;3.10;;;1.40;;
4601;SDS011;2313;48.552;9.370;2023-03-23T14:35:07;2.80;;;1.90;;
4601;SDS011;2313;48.552;9.370;2023-03-23T14:37:47;1.90;;;1.73;;
4601;SDS011;2313;48.552;9.370;2023-03-23T14:40:14;3.30;;;1.60;;
4601;SDS011;2313;48.552;9.370;2023-03-23T14:42:41;2.83;;;1.63;;
4601;SDS011;2313;48.552;9.370;2023-03-23T14:45:07;2.07;;;1.50;;
4601;SDS011;2313;48.552;9.370;2023-03-23T14:47:40;1.70;;;1.60;;
4601;SDS011;2313;48.552;9.370;2023-03-23T14:50:36;3.47;;;1.80;;
4601;SDS011;2313;48.552;9.370;2023-03-23T14:53:21;2.23;;;1.90;;
4601;SDS011;2313;48.552;9.370;2023-03-23T14:56:03;3.93;;;1.90;;
4601;SDS011;2313;48.552;9.370;2023-03-23T14:58:36;1.77;;;1.63;;
4601;SDS011;2313;48.552;9.370;2023-03-23T15:01:06;13.93;;;2.13;;
4601;SDS011;2313;48.552;9.370;2023-03-23T15:03:37;1.90;;;1.80;;
4601;SDS011;2313;48.552;9.370;2023-03-23T15:06:15;2.37;;;1.73;;
4601;SDS011;2313;48.552;9.370;2023-03-23T15:08:43;4.40;;;1.97;;
4601;SDS011;2313;48.552;9.370;2023-03-23T15:13:52;3.20;;;1.60;;
4601;SDS011;2313;48.552;9.370;2023-03-23T15:16:23;4.30;;;2.33;;
4601;SDS011;2313;48.552;9.370;2023-03-23T15:19:00;5.67;;;2.10;;
4601;SDS011;2313;48.552;9.370;2023-03-23T15:21:30;3.07;;;2.23;;
4601;SDS011;2313;48.552;9.370;2023-03-23T15:24:02;2.20;;;2.00;;
4601;SDS011;2313;48.552;9.370;2023-03-23T15:26:44;3.20;;;1.70;;
4601;SDS011;2313;48.552;9.370;2023-03-23T15:31:53;3.57;;;2.30;;
4601;SDS011;2313;48.552;9.370;2023-03-23T15:34:24;5.10;;;2.00;;
4601;SDS011;2313;48.552;9.370;2023-03-23T15:37:03;2.77;;;1.40;;
4601;SDS011;2313;48.552;9.370;2023-03-23T15:39:30;2.77;;;1.80;;
4601;SDS011;2313;48.552;9.370;2023-03-23T15:41:58;3.13;;;1.83;;
4601;SDS011;2313;48.552;9.370;2023-03-23T15:44:31;2.80;;;1.70;;
4601;SDS011;2313;48.552;9.370;2023-03-23T15:47:03;2.30;;;2.00;;
4601;SDS011;2313;48.552;9.370;2023-03-23T15:49:43;1.53;;;1.40;;
4601;SDS011;2313;48.552;9.370;2023-03-23T15:52:10;2.40;;;1.70;;
4601;SDS011;2313;48.552;9.370;2023-03-23T15:54:36;5.60;;;2.50;;
4601;SDS011;2313;48.552;9.370;2023-03-23T15:57:03;5.83;;;1.90;;
4601;SDS011;2313;48.552;9.370;2023-03-23T15:59:28;4.73;;;1.73;;
4601;SDS011;2313;48.552;9.370;2023-03-23T16:01:54;1.87;;;1.77;;
4601;SDS011;2313;48.552;9.370;2023-03-23T16:04:20;2.20;;;1.70;;
4601;SDS011;2313;48.552;9.370;2023-03-23T16:06:46;2.90;;;2.10;;
4601;SDS011;2313;48.552;9.370;2023-03-23T16:09:15;2.43;;;1.80;;
4601;SDS011;2313;48.552;9.370;2023-03-23T16:11:43;2.90;;;1.47;;
4601;SDS011;2313;48.552;9.370;2023-03-23T16:14:09;1.70;;;1.60;;
4601;SDS011;2313;48.552;9.370;2023-03-23T16:19:07;3.70;;;1.83;;
4601;SDS011;2313;48.552;9.370;2023-03-23T16:21:36;2.70;;;2.10;;
4601;SDS011;2313;48.552;9.370;2023-03-23T16:24:02;3.80;;;2.00;;
4601;SDS011;2313;48.552;9.370;2023-03-23T16:26:28;2.60;;;2.00;;
4601;SDS011;2313;48.552;9.370;2023-03-23T16:28:54;3.40;;;1.80;;
4601;SDS011;2313;48.552;9.370;2023-03-23T16:31:20;2.30;;;2.10;;
4601;SDS011;2313;48.552;9.370;2023-03-23T16:33:46;5.93;;;2.50;;
4601;SDS011;2313;48.552;9.370;2023-03-23T16:36:12;4.10;;;2.97;;
4601;SDS011;2313;48.552;9.370;2023-03-23T16:38:38;2.27;;;1.97;;
4601;SDS011;2313;48.552;9.370;2023-03-23T16:41:04;2.97;;;1.90;;
4601;SDS011;2313;48.552;9.370;2023-03-23T16:43:31;3.10;;;1.67;;
4601;SDS011;2313;48.552;9.370;2023-03-23T16:45:57;2.87;;;2.20;;
4601;SDS011;2313;48.552;9.370;2023-03-23T16:48:23;2.73;;;1.90;;
4601;SDS011;2313;48.552;9.370;2023-03-23T16:50:49;1.90;;;1.70;;
4601;SDS011;2313;48.552;9.370;2023-03-23T16:53:16;2.77;;;1.90;;
4601;SDS011;2313;48.552;9.370;2023-03-23T16:55:41;4.50;;;1.87;;
4601;SDS011;2313;48.552;9.370;2023-03-23T16:58:11;3.30;;;2.17;;
4601;SDS011;2313;48.552;9.370;2023-03-23T17:00:38;3.83;;;2.13;;
4601;SDS011;2313;48.552;9.370;2023-03-23T17:03:04;2.03;;;1.90;;
4601;SDS011;2313;48.552;9.370;2023-03-23T17:05:31;3.40;;;1.57;;
4601;SDS011;2313;48.552;9.370;2023-03-23T17:07:56;7.03;;;2.23;;
4601;SDS011;2313;48.552;9.370;2023-03-23T17:10:23;1.80;;;1.70;;
4601;SDS011;2313;48.552;9.370;2023-03-23T17:12:51;2.10;;;1.90;;